sensor_id;sensor_type;location;lat;lon;timestamp;pressure;altitude;pressure_sealevel;temperature;humidity
5812;BME280;2932;52.400;9.558;2024-02-23T00:01:20;97707.59;;;13.50;53.09
5812;BME280;2932;52.400;9.558;2024-02-23T00:03:46;97706.97;;;13.59;53.04
5812;BME280;2932;52.400;9.558;2024-02-23T00:06:11;97736.84;;;13.39;53.14
5812;BME280;2932;52.400;9.558;2024-02-23T00:08:37;97726.34;;;13.30;53.33
5812;BME280;2932;52.400;9.558;2024-02-23T00:11:03;97735.47;;;13.30;53.61
5812;BME280;2932;52.400;9.558;2024-02-23T00:13:28;97739.00;;;13.15;53.08
5812;BME280;2932;52.400;9.558;2024-02-23T00:15:53;97733.00;;;13.00;53.17
5812;BME280;2932;52.400;9.558;2024-02-23T00:18:19;97739.72;;;13.35;52.71
5812;BME280;2932;52.400;9.558;2024-02-23T00:20:46;97786.59;;;12.97;53.07
5812;BME280;2932;52.400;9.558;2024-02-23T00:23:11;97756.81;;;13.17;52.46
5812;BME280;2932;52.400;9.558;2024-02-23T00:25:37;97759.94;;;13.35;52.48
5812;BME280;2932;52.400;9.558;2024-02-23T00:28:03;97761.22;;;13.31;52.43
5812;BME280;2932;52.400;9.558;2024-02-23T00:30:28;97755.66;;;13.15;52.92
5812;BME280;2932;52.400;9.558;2024-02-23T00:32:53;97747.06;;;13.09;52.94
5812;BME280;2932;52.400;9.558;2024-02-23T00:35:19;97775.16;;;12.95;53.44
5812;BME280;2932;52.400;9.558;2024-02-23T00:37:44;97772.03;;;12.93;53.91
5812;BME280;2932;52.400;9.558;2024-02-23T00:40:10;97777.28;;;12.71;53.49
5812;BME280;2932;52.400;9.558;2024-02-23T00:42:35;97756.63;;;13.24;53.24
5812;BME280;2932;52.400;9.558;2024-02-23T00:45:01;97766.94;;;13.08;53.63
5812;BME280;2932;52.400;9.558;2024-02-23T00:47:26;97793.09;;;12.90;53.80
5812;BME280;2932;52.400;9.558;2024-02-23T00:49:52;97763.25;;;12.94;53.13
5812;BME280;2932;52.400;9.558;2024-02-23T00:52:17;97790.59;;;12.96;53.41
5812;BME280;2932;52.400;9.558;2024-02-23T00:54:42;97764.69;;;13.35;52.94
5812;BME280;2932;52.400;9.558;2024-02-23T00:57:08;97791.94;;;13.24;53.30
5812;BME280;2932;52.400;9.558;2024-02-23T00:59:33;97796.06;;;12.99;53.13
5812;BME280;2932;52.400;9.558;2024-02-23T01:01:59;97811.66;;;12.93;53.26
5812;BME280;2932;52.400;9.558;2024-02-23T01:04:24;97803.25;;;12.97;53.53
5812;BME280;2932;52.400;9.558;2024-02-23T01:06:49;97794.19;;;12.77;53.78
5812;BME280;2932;52.400;9.558;2024-02-23T01:09:15;97817.13;;;13.17;53.89
5812;BME280;2932;52.400;9.558;2024-02-23T01:11:45;97832.06;;;13.03;53.31
5812;BME280;2932;52.400;9.558;2024-02-23T01:14:10;97805.66;;;12.95;53.72
5812;BME280;2932;52.400;9.558;2024-02-23T01:16:36;97842.00;;;12.64;54.54
5812;BME280;2932;52.400;9.558;2024-02-23T01:19:01;97879.25;;;13.03;54.01
5812;BME280;2932;52.400;9.558;2024-02-23T01:21:28;97876.84;;;12.65;55.36
5812;BME280;2932;52.400;9.558;2024-02-23T01:23:53;97884.88;;;11.97;57.62
5812;BME280;2932;52.400;9.558;2024-02-23T01:26:19;97886.81;;;11.77;59.74
5812;BME280;2932;52.400;9.558;2024-02-23T01:28:44;97914.22;;;11.67;60.41
5812;BME280;2932;52.400;9.558;2024-02-23T01:31:10;97913.44;;;11.94;60.27
5812;BME280;2932;52.400;9.558;2024-02-23T01:33:36;97918.84;;;11.78;59.91
5812;BME280;2932;52.400;9.558;2024-02-23T01:36:04;97945.69;;;11.81;60.30
5812;BME280;2932;52.400;9.558;2024-02-23T01:38:30;97942.59;;;11.75;60.82
5812;BME280;2932;52.400;9.558;2024-02-23T01:40:57;97995.44;;;11.30;62.56
5812;BME280;2932;52.400;9.558;2024-02-23T01:43:23;97985.41;;;10.79;64.37
5812;BME280;2932;52.400;9.558;2024-02-23T01:45:49;98018.31;;;10.66;66.47
5812;BME280;2932;52.400;9.558;2024-02-23T01:48:14;98060.22;;;10.61;67.51
5812;BME280;2932;52.400;9.558;2024-02-23T01:50:40;98054.16;;;10.32;68.87
5812;BME280;2932;52.400;9.558;2024-02-23T01:53:07;98058.94;;;10.28;69.28
5812;BME280;2932;52.400;9.558;2024-02-23T01:55:32;98072.22;;;10.44;68.51
5812;BME280;2932;52.400;9.558;2024-02-23T01:57:59;98082.63;;;10.74;68.06
5812;BME280;2932;52.400;9.558;2024-02-23T02:00:24;98098.34;;;10.40;68.47
5812;BME280;2932;52.400;9.558;2024-02-23T02:02:50;98106.97;;;10.42;68.71
5812;BME280;2932;52.400;9.558;2024-02-23T02:05:16;98120.69;;;10.59;68.44
5812;BME280;2932;52.400;9.558;2024-02-23T02:07:41;98170.69;;;10.24;68.63
5812;BME280;2932;52.400;9.558;2024-02-23T02:10:09;98166.34;;;10.16;69.26
5812;BME280;2932;52.400;9.558;2024-02-23T02:12:35;98188.50;;;10.05;68.27
5812;BME280;2932;52.400;9.558;2024-02-23T02:15:01;98130.97;;;9.93;68.14
5812;BME280;2932;52.400;9.558;2024-02-23T02:17:27;98165.97;;;10.21;67.94
5812;BME280;2932;52.400;9.558;2024-02-23T02:19:53;98191.72;;;9.96;67.93
5812;BME280;2932;52.400;9.558;2024-02-23T02:22:18;98195.56;;;10.13;67.58
5812;BME280;2932;52.400;9.558;2024-02-23T02:24:44;98208.69;;;9.98;67.41
5812;BME280;2932;52.400;9.558;2024-02-23T02:27:11;98205.19;;;9.84;68.16
5812;BME280;2932;52.400;9.558;2024-02-23T02:29:37;98204.84;;;9.64;67.68
5812;BME280;2932;52.400;9.558;2024-02-23T02:32:02;98198.84;;;9.90;67.65
5812;BME280;2932;52.400;9.558;2024-02-23T02:34:28;98213.84;;;9.89;67.72
5812;BME280;2932;52.400;9.558;2024-02-23T02:36:54;98218.16;;;9.97;66.78
5812;BME280;2932;52.400;9.558;2024-02-23T02:39:19;98206.69;;;9.99;67.07
5812;BME280;2932;52.400;9.558;2024-02-23T02:41:45;98218.59;;;9.78;67.37
5812;BME280;2932;52.400;9.558;2024-02-23T02:44:10;98234.25;;;10.24;66.76
5812;BME280;2932;52.400;9.558;2024-02-23T02:46:38;98241.44;;;9.96;66.92
5812;BME280;2932;52.400;9.558;2024-02-23T02:49:03;98259.63;;;9.80;66.94
5812;BME280;2932;52.400;9.558;2024-02-23T02:51:29;98255.31;;;9.68;66.96
5812;BME280;2932;52.400;9.558;2024-02-23T02:53:54;98255.22;;;10.00;66.08
5812;BME280;2932;52.400;9.558;2024-02-23T02:56:19;98257.13;;;10.17;65.38
5812;BME280;2932;52.400;9.558;2024-02-23T02:58:45;98262.66;;;10.14;64.90
5812;BME280;2932;52.400;9.558;2024-02-23T03:01:10;98267.50;;;9.88;64.83
5812;BME280;2932;52.400;9.558;2024-02-23T03:03:35;98265.06;;;10.04;64.81
5812;BME280;2932;52.400;9.558;2024-02-23T03:06:01;98279.72;;;9.87;64.33
5812;BME280;2932;52.400;9.558;2024-02-23T03:08:26;98264.19;;;10.40;64.13
5812;BME280;2932;52.400;9.558;2024-02-23T03:10:51;98278.47;;;10.10;63.61
5812;BME280;2932;52.400;9.558;2024-02-23T03:13:17;98255.94;;;10.15;63.47
5812;BME280;2932;52.400;9.558;2024-02-23T03:15:42;98273.34;;;10.04;64.06
5812;BME280;2932;52.400;9.558;2024-02-23T03:18:07;98268.31;;;9.82;64.68
5812;BME280;2932;52.400;9.558;2024-02-23T03:20:34;98280.44;;;10.06;64.42
5812;BME280;2932;52.400;9.558;2024-02-23T03:23:00;98283.22;;;10.02;64.17
5812;BME280;2932;52.400;9.558;2024-02-23T03:25:26;98287.75;;;10.62;63.11
5812;BME280;2932;52.400;9.558;2024-02-23T03:27:51;98289.00;;;10.47;62.63
5812;BME280;2932;52.400;9.558;2024-02-23T03:30:16;98282.88;;;9.93;63.05
5812;BME280;2932;52.400;9.558;2024-02-23T03:32:42;98293.31;;;10.51;62.41
5812;BME280;2932;52.400;9.558;2024-02-23T03:35:07;98302.53;;;10.27;62.62
5812;BME280;2932;52.400;9.558;2024-02-23T03:37:33;98301.38;;;10.03;62.66
5812;BME280;2932;52.400;9.558;2024-02-23T03:39:59;98297.81;;;10.02;62.80
5812;BME280;2932;52.400;9.558;2024-02-23T03:42:25;98302.63;;;9.84;62.89
5812;BME280;2932;52.400;9.558;2024-02-23T03:44:51;98327.88;;;9.83;62.39
5812;BME280;2932;52.400;9.558;2024-02-23T03:47:17;98312.81;;;10.05;62.36
5812;BME280;2932;52.400;9.558;2024-02-23T03:49:42;98315.97;;;10.07;61.93
5812;BME280;2932;52.400;9.558;2024-02-23T03:52:07;98319.47;;;10.40;60.98
5812;BME280;2932;52.400;9.558;2024-02-23T03:54:33;98358.97;;;10.37;60.24
5812;BME280;2932;52.400;9.558;2024-02-23T03:56:58;98347.91;;;10.19;60.28
5812;BME280;2932;52.400;9.558;2024-02-23T03:59:24;98332.00;;;10.58;60.61
5812;BME280;2932;52.400;9.558;2024-02-23T04:01:49;98348.44;;;10.83;59.52
5812;BME280;2932;52.400;9.558;2024-02-23T04:04:14;98357.56;;;10.80;59.57
5812;BME280;2932;52.400;9.558;2024-02-23T04:06:40;98348.66;;;10.41;59.88
5812;BME280;2932;52.400;9.558;2024-02-23T04:09:05;98366.47;;;10.15;60.25
5812;BME280;2932;52.400;9.558;2024-02-23T04:11:31;98354.00;;;10.83;59.74
5812;BME280;2932;52.400;9.558;2024-02-23T04:13:57;98357.09;;;10.96;59.52
5812;BME280;2932;52.400;9.558;2024-02-23T04:16:23;98357.69;;;10.52;59.32
5812;BME280;2932;52.400;9.558;2024-02-23T04:18:50;98348.31;;;10.31;59.85
5812;BME280;2932;52.400;9.558;2024-02-23T04:21:15;98355.81;;;10.31;59.85
5812;BME280;2932;52.400;9.558;2024-02-23T04:23:40;98371.19;;;10.39;59.94
5812;BME280;2932;52.400;9.558;2024-02-23T04:26:06;98375.16;;;10.34;59.17
5812;BME280;2932;52.400;9.558;2024-02-23T04:28:31;98374.63;;;10.68;59.48
5812;BME280;2932;52.400;9.558;2024-02-23T04:30:58;98388.44;;;10.68;58.82
5812;BME280;2932;52.400;9.558;2024-02-23T04:33:24;98385.72;;;10.54;59.19
5812;BME280;2932;52.400;9.558;2024-02-23T04:35:49;98384.09;;;10.71;59.04
5812;BME280;2932;52.400;9.558;2024-02-23T04:38:15;98375.88;;;10.49;59.21
5812;BME280;2932;52.400;9.558;2024-02-23T04:40:40;98380.41;;;10.98;58.35
5812;BME280;2932;52.400;9.558;2024-02-23T04:43:05;98390.81;;;10.73;57.84
5812;BME280;2932;52.400;9.558;2024-02-23T04:45:31;98392.03;;;10.65;58.33
5812;BME280;2932;52.400;9.558;2024-02-23T04:47:56;98395.28;;;11.22;58.19
5812;BME280;2932;52.400;9.558;2024-02-23T04:50:21;98408.19;;;10.74;57.94
5812;BME280;2932;52.400;9.558;2024-02-23T04:52:47;98410.97;;;10.63;57.93
5812;BME280;2932;52.400;9.558;2024-02-23T04:55:12;98413.75;;;10.59;57.61
5812;BME280;2932;52.400;9.558;2024-02-23T04:57:38;98395.94;;;10.75;57.31
5812;BME280;2932;52.400;9.558;2024-02-23T05:00:04;98415.03;;;10.26;56.90
5812;BME280;2932;52.400;9.558;2024-02-23T05:02:31;98418.50;;;10.59;57.00
5812;BME280;2932;52.400;9.558;2024-02-23T05:05:01;98423.22;;;10.65;56.54
5812;BME280;2932;52.400;9.558;2024-02-23T05:07:26;98415.03;;;10.33;56.33
5812;BME280;2932;52.400;9.558;2024-02-23T05:09:51;98437.13;;;10.33;56.66
5812;BME280;2932;52.400;9.558;2024-02-23T05:12:17;98430.75;;;10.58;56.73
5812;BME280;2932;52.400;9.558;2024-02-23T05:14:42;98437.53;;;10.39;56.50
5812;BME280;2932;52.400;9.558;2024-02-23T05:17:07;98446.59;;;10.15;56.73
5812;BME280;2932;52.400;9.558;2024-02-23T05:19:33;98442.97;;;10.71;56.38
5812;BME280;2932;52.400;9.558;2024-02-23T05:21:58;98459.22;;;10.41;56.68
5812;BME280;2932;52.400;9.558;2024-02-23T05:24:23;98459.19;;;10.51;56.63
5812;BME280;2932;52.400;9.558;2024-02-23T05:26:56;98469.09;;;10.45;56.85
5812;BME280;2932;52.400;9.558;2024-02-23T05:29:23;98462.34;;;10.64;56.50
5812;BME280;2932;52.400;9.558;2024-02-23T05:31:52;98474.50;;;10.88;56.34
5812;BME280;2932;52.400;9.558;2024-02-23T05:34:18;98488.81;;;10.54;56.39
5812;BME280;2932;52.400;9.558;2024-02-23T05:36:44;98476.28;;;11.30;55.82
5812;BME280;2932;52.400;9.558;2024-02-23T05:39:11;98480.34;;;11.15;55.81
5812;BME280;2932;52.400;9.558;2024-02-23T05:41:42;98470.13;;;10.97;56.10
5812;BME280;2932;52.400;9.558;2024-02-23T05:44:10;98480.81;;;10.88;55.85
5812;BME280;2932;52.400;9.558;2024-02-23T05:46:38;98479.66;;;10.86;56.42
5812;BME280;2932;52.400;9.558;2024-02-23T05:49:08;98492.75;;;10.67;56.88
5812;BME280;2932;52.400;9.558;2024-02-23T05:51:34;98500.94;;;10.99;56.44
5812;BME280;2932;52.400;9.558;2024-02-23T05:54:02;98497.03;;;10.90;56.53
5812;BME280;2932;52.400;9.558;2024-02-23T05:56:27;98498.69;;;10.69;56.73
5812;BME280;2932;52.400;9.558;2024-02-23T05:58:53;98495.06;;;10.80;56.64
5812;BME280;2932;52.400;9.558;2024-02-23T06:01:19;98510.16;;;10.11;57.58
5812;BME280;2932;52.400;9.558;2024-02-23T06:03:45;98485.50;;;11.13;56.82
5812;BME280;2932;52.400;9.558;2024-02-23T06:06:10;98497.09;;;10.68;56.80
5812;BME280;2932;52.400;9.558;2024-02-23T06:08:36;98494.34;;;10.61;57.68
5812;BME280;2932;52.400;9.558;2024-02-23T06:11:02;98483.69;;;10.49;57.43
5812;BME280;2932;52.400;9.558;2024-02-23T06:13:31;98492.38;;;10.51;57.66
5812;BME280;2932;52.400;9.558;2024-02-23T06:15:57;98501.09;;;10.25;57.96
5812;BME280;2932;52.400;9.558;2024-02-23T06:18:22;98502.28;;;10.34;57.86
5812;BME280;2932;52.400;9.558;2024-02-23T06:20:49;98519.22;;;10.58;57.73
5812;BME280;2932;52.400;9.558;2024-02-23T06:23:15;98528.31;;;10.55;57.97
5812;BME280;2932;52.400;9.558;2024-02-23T06:25:40;98504.16;;;10.80;57.12
5812;BME280;2932;52.400;9.558;2024-02-23T06:28:06;98546.06;;;10.08;57.45
5812;BME280;2932;52.400;9.558;2024-02-23T06:30:31;98542.16;;;10.41;57.43
5812;BME280;2932;52.400;9.558;2024-02-23T06:32:57;98539.75;;;10.07;58.14
5812;BME280;2932;52.400;9.558;2024-02-23T06:35:22;98544.88;;;10.09;58.14
5812;BME280;2932;52.400;9.558;2024-02-23T06:37:47;98540.19;;;10.20;58.07
5812;BME280;2932;52.400;9.558;2024-02-23T06:40:13;98540.97;;;10.42;57.86
5812;BME280;2932;52.400;9.558;2024-02-23T06:42:38;98543.31;;;10.18;58.47
5812;BME280;2932;52.400;9.558;2024-02-23T06:45:04;98551.59;;;10.04;58.76
5812;BME280;2932;52.400;9.558;2024-02-23T06:47:29;98557.53;;;10.13;58.91
5812;BME280;2932;52.400;9.558;2024-02-23T06:49:55;98546.50;;;10.27;58.75
5812;BME280;2932;52.400;9.558;2024-02-23T06:52:20;98546.88;;;10.65;57.83
5812;BME280;2932;52.400;9.558;2024-02-23T06:54:46;98543.34;;;10.50;58.10
5812;BME280;2932;52.400;9.558;2024-02-23T06:57:11;98543.72;;;10.56;57.74
5812;BME280;2932;52.400;9.558;2024-02-23T06:59:36;98553.22;;;10.26;58.09
5812;BME280;2932;52.400;9.558;2024-02-23T07:02:02;98582.03;;;10.68;57.54
5812;BME280;2932;52.400;9.558;2024-02-23T07:04:29;98547.28;;;10.67;57.62
5812;BME280;2932;52.400;9.558;2024-02-23T07:06:55;98563.47;;;10.54;57.54
5812;BME280;2932;52.400;9.558;2024-02-23T07:09:20;98555.16;;;10.72;57.25
5812;BME280;2932;52.400;9.558;2024-02-23T07:11:46;98562.59;;;11.11;57.21
5812;BME280;2932;52.400;9.558;2024-02-23T07:14:11;98572.94;;;10.50;57.59
5812;BME280;2932;52.400;9.558;2024-02-23T07:16:40;98566.94;;;11.12;57.16
5812;BME280;2932;52.400;9.558;2024-02-23T07:19:06;98571.66;;;11.18;56.37
5812;BME280;2932;52.400;9.558;2024-02-23T07:21:32;98579.84;;;11.50;56.00
5812;BME280;2932;52.400;9.558;2024-02-23T07:23:58;98590.72;;;10.74;56.33
5812;BME280;2932;52.400;9.558;2024-02-23T07:26:24;98591.91;;;10.69;56.75
5812;BME280;2932;52.400;9.558;2024-02-23T07:28:49;98578.88;;;10.45;56.88
5812;BME280;2932;52.400;9.558;2024-02-23T07:31:14;98591.44;;;11.10;56.05
5812;BME280;2932;52.400;9.558;2024-02-23T07:33:40;98593.78;;;11.22;55.52
5812;BME280;2932;52.400;9.558;2024-02-23T07:36:06;98592.53;;;11.41;55.28
5812;BME280;2932;52.400;9.558;2024-02-23T07:38:34;98600.53;;;11.17;55.01
5812;BME280;2932;52.400;9.558;2024-02-23T07:40:59;98605.72;;;10.87;55.29
5812;BME280;2932;52.400;9.558;2024-02-23T07:43:24;98615.19;;;10.89;55.41
5812;BME280;2932;52.400;9.558;2024-02-23T07:45:51;98614.78;;;11.05;55.97
5812;BME280;2932;52.400;9.558;2024-02-23T07:48:16;98633.31;;;11.22;54.93
5812;BME280;2932;52.400;9.558;2024-02-23T07:50:42;98628.22;;;10.92;55.47
5812;BME280;2932;52.400;9.558;2024-02-23T07:53:07;98625.44;;;11.10;55.07
5812;BME280;2932;52.400;9.558;2024-02-23T07:55:32;98640.09;;;10.96;55.42
5812;BME280;2932;52.400;9.558;2024-02-23T07:57:58;98642.41;;;11.30;54.45
5812;BME280;2932;52.400;9.558;2024-02-23T08:00:27;98652.72;;;11.08;54.69
5812;BME280;2932;52.400;9.558;2024-02-23T08:02:52;98662.13;;;11.53;54.46
5812;BME280;2932;52.400;9.558;2024-02-23T08:05:22;98640.75;;;11.57;54.92
5812;BME280;2932;52.400;9.558;2024-02-23T08:07:47;98662.22;;;10.89;55.16
5812;BME280;2932;52.400;9.558;2024-02-23T08:10:12;98643.56;;;11.32;54.86
5812;BME280;2932;52.400;9.558;2024-02-23T08:12:38;98664.50;;;11.51;54.57
5812;BME280;2932;52.400;9.558;2024-02-23T08:15:03;98651.34;;;11.84;54.12
5812;BME280;2932;52.400;9.558;2024-02-23T08:17:29;98660.84;;;11.83;54.15
5812;BME280;2932;52.400;9.558;2024-02-23T08:19:54;98659.22;;;11.92;53.60
5812;BME280;2932;52.400;9.558;2024-02-23T08:22:19;98652.09;;;11.95;53.27
5812;BME280;2932;52.400;9.558;2024-02-23T08:24:45;98675.63;;;11.26;54.37
5812;BME280;2932;52.400;9.558;2024-02-23T08:27:10;98669.72;;;11.17;54.88
5812;BME280;2932;52.400;9.558;2024-02-23T08:29:37;98695.03;;;11.19;54.78
5812;BME280;2932;52.400;9.558;2024-02-23T08:32:03;98687.38;;;11.69;54.33
5812;BME280;2932;52.400;9.558;2024-02-23T08:34:29;98677.97;;;11.46;54.68
5812;BME280;2932;52.400;9.558;2024-02-23T08:36:54;98720.28;;;11.57;54.31
5812;BME280;2932;52.400;9.558;2024-02-23T08:39:19;98706.47;;;11.32;54.54
5812;BME280;2932;52.400;9.558;2024-02-23T08:41:47;98699.78;;;11.19;55.01
5812;BME280;2932;52.400;9.558;2024-02-23T08:44:13;98740.88;;;11.45;54.36
5812;BME280;2932;52.400;9.558;2024-02-23T08:46:38;98696.88;;;11.83;53.74
5812;BME280;2932;52.400;9.558;2024-02-23T08:49:04;98690.56;;;11.61;54.38
5812;BME280;2932;52.400;9.558;2024-02-23T08:51:30;98723.06;;;11.50;53.76
5812;BME280;2932;52.400;9.558;2024-02-23T08:53:55;98694.88;;;11.90;54.10
5812;BME280;2932;52.400;9.558;2024-02-23T08:56:22;98701.69;;;11.57;53.34
5812;BME280;2932;52.400;9.558;2024-02-23T08:58:47;98711.78;;;12.14;53.23
5812;BME280;2932;52.400;9.558;2024-02-23T09:01:13;98728.41;;;12.17;52.81
5812;BME280;2932;52.400;9.558;2024-02-23T09:03:38;98712.28;;;11.91;53.60
5812;BME280;2932;52.400;9.558;2024-02-23T09:06:04;98720.63;;;11.84;53.67
5812;BME280;2932;52.400;9.558;2024-02-23T09:08:29;98725.63;;;12.14;53.49
5812;BME280;2932;52.400;9.558;2024-02-23T09:10:54;98720.72;;;12.43;52.99
5812;BME280;2932;52.400;9.558;2024-02-23T09:13:20;98730.06;;;11.97;52.52
5812;BME280;2932;52.400;9.558;2024-02-23T09:15:45;98722.66;;;12.53;51.94
5812;BME280;2932;52.400;9.558;2024-02-23T09:18:11;98720.94;;;12.73;52.05
5812;BME280;2932;52.400;9.558;2024-02-23T09:20:36;98725.69;;;12.76;51.07
5812;BME280;2932;52.400;9.558;2024-02-23T09:23:04;98716.09;;;12.84;51.17
5812;BME280;2932;52.400;9.558;2024-02-23T09:25:29;98737.66;;;12.62;50.86
5812;BME280;2932;52.400;9.558;2024-02-23T09:27:58;98729.09;;;12.94;50.94
5812;BME280;2932;52.400;9.558;2024-02-23T09:30:23;98723.91;;;13.00;50.69
5812;BME280;2932;52.400;9.558;2024-02-23T09:32:49;98732.16;;;13.11;50.16
5812;BME280;2932;52.400;9.558;2024-02-23T09:35:14;98734.38;;;13.33;50.29
5812;BME280;2932;52.400;9.558;2024-02-23T09:37:39;98754.69;;;13.23;50.45
5812;BME280;2932;52.400;9.558;2024-02-23T09:40:06;98742.97;;;12.98;50.61
5812;BME280;2932;52.400;9.558;2024-02-23T09:42:32;98764.94;;;12.75;51.01
5812;BME280;2932;52.400;9.558;2024-02-23T09:44:59;98744.72;;;12.78;50.90
5812;BME280;2932;52.400;9.558;2024-02-23T09:47:28;98757.28;;;12.89;50.54
5812;BME280;2932;52.400;9.558;2024-02-23T09:49:54;98770.53;;;12.67;50.82
5812;BME280;2932;52.400;9.558;2024-02-23T09:52:21;98769.34;;;12.65;50.98
5812;BME280;2932;52.400;9.558;2024-02-23T09:54:46;98760.34;;;13.09;50.32
5812;BME280;2932;52.400;9.558;2024-02-23T09:57:13;98765.16;;;12.98;50.70
5812;BME280;2932;52.400;9.558;2024-02-23T09:59:39;98757.13;;;13.14;50.63
5812;BME280;2932;52.400;9.558;2024-02-23T10:02:08;98777.44;;;13.00;51.09
5812;BME280;2932;52.400;9.558;2024-02-23T10:04:38;98772.50;;;13.26;51.15
5812;BME280;2932;52.400;9.558;2024-02-23T10:07:05;98777.03;;;13.06;51.32
5812;BME280;2932;52.400;9.558;2024-02-23T10:09:31;98761.38;;;12.74;51.63
5812;BME280;2932;52.400;9.558;2024-02-23T10:11:56;98775.31;;;12.60;51.80
5812;BME280;2932;52.400;9.558;2024-02-23T10:14:22;98764.50;;;12.80;51.49
5812;BME280;2932;52.400;9.558;2024-02-23T10:16:48;98814.53;;;12.69;51.94
5812;BME280;2932;52.400;9.558;2024-02-23T10:19:18;98768.13;;;12.73;51.90
5812;BME280;2932;52.400;9.558;2024-02-23T10:21:45;98796.34;;;12.54;52.10
5812;BME280;2932;52.400;9.558;2024-02-23T10:24:10;98773.84;;;13.59;51.30
5812;BME280;2932;52.400;9.558;2024-02-23T10:26:35;98781.19;;;13.31;50.63
5812;BME280;2932;52.400;9.558;2024-02-23T10:29:01;98763.91;;;13.58;50.40
5812;BME280;2932;52.400;9.558;2024-02-23T10:31:27;98779.47;;;13.89;50.60
5812;BME280;2932;52.400;9.558;2024-02-23T10:33:54;98802.44;;;13.00;51.43
5812;BME280;2932;52.400;9.558;2024-02-23T10:36:22;98809.28;;;12.82;51.42
5812;BME280;2932;52.400;9.558;2024-02-23T10:38:51;98792.38;;;12.58;52.02
5812;BME280;2932;52.400;9.558;2024-02-23T10:41:19;98777.84;;;12.99;52.25
5812;BME280;2932;52.400;9.558;2024-02-23T10:43:47;98777.38;;;13.11;51.69
5812;BME280;2932;52.400;9.558;2024-02-23T10:46:14;98774.19;;;13.16;50.84
5812;BME280;2932;52.400;9.558;2024-02-23T10:48:44;98788.25;;;12.84;51.31
5812;BME280;2932;52.400;9.558;2024-02-23T10:51:11;98777.91;;;12.92;51.57
5812;BME280;2932;52.400;9.558;2024-02-23T10:53:39;98769.38;;;13.65;50.94
5812;BME280;2932;52.400;9.558;2024-02-23T10:56:05;98791.59;;;13.20;50.60
5812;BME280;2932;52.400;9.558;2024-02-23T10:58:32;98772.66;;;13.05;51.30
5812;BME280;2932;52.400;9.558;2024-02-23T11:01:02;98763.09;;;13.13;51.28
5812;BME280;2932;52.400;9.558;2024-02-23T11:03:30;98762.69;;;13.18;51.22
5812;BME280;2932;52.400;9.558;2024-02-23T11:05:56;98774.81;;;13.34;50.62
5812;BME280;2932;52.400;9.558;2024-02-23T11:08:22;98785.53;;;12.77;51.75
5812;BME280;2932;52.400;9.558;2024-02-23T11:10:51;98771.16;;;12.93;51.11
5812;BME280;2932;52.400;9.558;2024-02-23T11:13:38;98757.84;;;13.66;50.46
5812;BME280;2932;52.400;9.558;2024-02-23T11:16:05;98765.25;;;12.87;50.75
5812;BME280;2932;52.400;9.558;2024-02-23T11:18:32;98766.13;;;13.32;50.57
5812;BME280;2932;52.400;9.558;2024-02-23T11:21:00;98753.88;;;13.26;50.20
5812;BME280;2932;52.400;9.558;2024-02-23T11:23:26;98763.25;;;13.43;50.57
5812;BME280;2932;52.400;9.558;2024-02-23T11:25:59;98772.22;;;13.13;49.94
5812;BME280;2932;52.400;9.558;2024-02-23T11:28:48;98766.16;;;13.70;50.21
5812;BME280;2932;52.400;9.558;2024-02-23T11:31:15;98784.34;;;13.78;50.32
5812;BME280;2932;52.400;9.558;2024-02-23T11:33:48;98764.44;;;13.42;49.04
5812;BME280;2932;52.400;9.558;2024-02-23T11:36:34;98763.41;;;13.22;49.71
5812;BME280;2932;52.400;9.558;2024-02-23T11:39:00;98762.13;;;13.33;49.66
5812;BME280;2932;52.400;9.558;2024-02-23T11:41:27;98756.09;;;13.83;48.44
5812;BME280;2932;52.400;9.558;2024-02-23T11:43:53;98740.31;;;13.73;49.13
5812;BME280;2932;52.400;9.558;2024-02-23T11:46:20;98748.25;;;13.75;49.52
5812;BME280;2932;52.400;9.558;2024-02-23T11:48:46;98751.38;;;13.39;49.85
5812;BME280;2932;52.400;9.558;2024-02-23T11:51:13;98756.63;;;13.30;49.86
5812;BME280;2932;52.400;9.558;2024-02-23T11:53:38;98764.94;;;13.30;49.40
5812;BME280;2932;52.400;9.558;2024-02-23T11:56:07;98736.75;;;13.73;49.24
5812;BME280;2932;52.400;9.558;2024-02-23T11:58:33;98741.75;;;13.51;49.49
5812;BME280;2932;52.400;9.558;2024-02-23T12:01:02;98731.13;;;13.80;49.55
5812;BME280;2932;52.400;9.558;2024-02-23T12:03:28;98735.97;;;13.72;48.89
5812;BME280;2932;52.400;9.558;2024-02-23T12:05:56;98716.03;;;13.81;48.96
5812;BME280;2932;52.400;9.558;2024-02-23T12:08:22;98711.16;;;13.54;48.74
5812;BME280;2932;52.400;9.558;2024-02-23T12:10:49;98716.47;;;13.76;48.78
5812;BME280;2932;52.400;9.558;2024-02-23T12:13:14;98712.97;;;14.36;48.68
5812;BME280;2932;52.400;9.558;2024-02-23T12:15:39;98711.06;;;14.60;48.51
5812;BME280;2932;52.400;9.558;2024-02-23T12:18:05;98716.53;;;14.37;48.00
5812;BME280;2932;52.400;9.558;2024-02-23T12:20:33;98705.53;;;14.83;47.11
5812;BME280;2932;52.400;9.558;2024-02-23T12:23:00;98720.53;;;15.83;45.75
5812;BME280;2932;52.400;9.558;2024-02-23T12:25:26;98715.06;;;15.99;44.79
5812;BME280;2932;52.400;9.558;2024-02-23T12:27:57;98709.38;;;17.11;42.51
5812;BME280;2932;52.400;9.558;2024-02-23T12:30:23;98731.56;;;17.18;43.21
5812;BME280;2932;52.400;9.558;2024-02-23T12:32:48;98710.59;;;17.10;42.95
5812;BME280;2932;52.400;9.558;2024-02-23T12:35:14;98722.47;;;16.25;44.71
5812;BME280;2932;52.400;9.558;2024-02-23T12:37:40;98715.84;;;15.33;46.36
5812;BME280;2932;52.400;9.558;2024-02-23T12:40:07;98754.44;;;14.57;46.98
5812;BME280;2932;52.400;9.558;2024-02-23T12:42:32;98718.16;;;14.00;47.33
5812;BME280;2932;52.400;9.558;2024-02-23T12:44:58;98721.72;;;14.34;47.06
5812;BME280;2932;52.400;9.558;2024-02-23T12:47:23;98730.44;;;14.67;47.46
5812;BME280;2932;52.400;9.558;2024-02-23T12:49:48;98733.31;;;14.60;47.51
5812;BME280;2932;52.400;9.558;2024-02-23T12:52:14;98736.63;;;14.17;47.59
5812;BME280;2932;52.400;9.558;2024-02-23T12:54:39;98740.22;;;14.18;48.71
5812;BME280;2932;52.400;9.558;2024-02-23T12:57:04;98737.50;;;14.11;47.77
5812;BME280;2932;52.400;9.558;2024-02-23T12:59:30;98742.00;;;14.01;47.76
5812;BME280;2932;52.400;9.558;2024-02-23T13:01:55;98742.56;;;14.53;47.66
5812;BME280;2932;52.400;9.558;2024-02-23T13:04:21;98767.13;;;13.94;48.03
5812;BME280;2932;52.400;9.558;2024-02-23T13:06:46;98761.47;;;13.63;48.59
5812;BME280;2932;52.400;9.558;2024-02-23T13:09:12;98763.00;;;13.68;48.27
5812;BME280;2932;52.400;9.558;2024-02-23T13:11:40;98752.84;;;13.92;48.08
5812;BME280;2932;52.400;9.558;2024-02-23T13:14:05;98758.63;;;14.39;48.33
5812;BME280;2932;52.400;9.558;2024-02-23T13:16:31;98759.50;;;14.32;47.71